Frank Wiley Field
KMLS : now visible

Airfield :











YOU CAN JOIN US ON...

 
LOGIN :

Register | Disclaimer

   EN    FR    IT 

 









Legend :    VFR   Marginal VFR   IFR   Intensive IFR   Very Intensive IFR
Visi :
Ceiling :
>= 8 km
>= 3000ft
5 to 8 km
1000 to 3000 ft
1500m to 5 km
500 to 1000 ft
800 to 1500m
200 to 500 ft
< 800m
< 200 ft
Symbols :   Thunderstorms  Fog  Heavy snow  Heavy precipitations  Wind > 20 kt






- Airport Elevation : 2630 ft
- IATA code : MLS


KMLS - Frank Wiley Field

CURRENT METAR :
  • 092253Z AUTO 14006KT 10SM CLR 09/M16 A3008 RMK AO2 SLP208 T00891156

EXPIRED METARs :
  • 092153Z AUTO 16007KT 10SM CLR 08/M14 A3011 RMK AO2 SLP218 T00781139
  • 092053Z AUTO 12007KT 10SM CLR 07/M13 A3017 RMK AO2 SLP236 T00671128 58032

TAF KMLS
Valid from the 10 at 00:00 until the 11 at 00:00 UTC


092320Z 1000/1024 14006KT P6SM BKN250
FM102000 36009KT P6SM BKN080



MET'MAP, your aeronautical weather chart ! - Copyright ORBIFLY December 2007 - Disclaimer

ORBIFLY MET'MAP TEAM :

Programming & Development : Alexandra Zaïnal
Concept & original design : Baudouin d'Aumeries
Assistance for programming : Marc-Olivier Méhu
Technical & hardware support : Manuel Goepfert

Contact : metmap@orbifly.com




SOURCES & CREDITS :

   NOAA       Earth
Advisory